Time;durP1;ratioP1;P1;durP2;ratioP2;P2;SDS_P1;SDS_P2;PMS_P1;PMS_P2;Temp;Humidity;BMP_temperature;BMP_pressure;BME280_temperature;BME280_humidity;BME280_pressure;Samples;Min_cycle;Max_cycle;Signal;HPM_P1;HPM_P2
2022/06/09 00:00:11;;;;;;;6.63;2.30;;;;;;;15.08;100.00;98446.59;5135050;27;20243;-80
2022/06/09 00:02:45;;;;;;;2.23;1.83;;;;;;;15.12;100.00;98455.97;5135367;27;20205;-80
2022/06/09 00:05:15;;;;;;;2.20;1.50;;;;;;;15.18;100.00;98451.91;5134155;27;20208;-80
2022/06/09 00:07:45;;;;;;;1.50;1.40;;;;;;;15.06;100.00;98459.25;5132891;27;20194;-80
2022/06/09 00:10:18;;;;;;;4.47;1.63;;;;;;;15.10;100.00;98455.28;5131930;27;20206;-80
2022/06/09 00:12:46;;;;;;;6.87;1.90;;;;;;;15.05;100.00;98454.88;5141264;27;20183;-80
2022/06/09 00:15:16;;;;;;;2.87;1.70;;;;;;;15.08;100.00;98451.09;5134903;27;20273;-80
2022/06/09 00:17:47;;;;;;;5.13;1.50;;;;;;;14.99;100.00;98455.47;5134815;27;20277;-80
2022/06/09 00:20:16;;;;;;;3.90;1.90;;;;;;;14.95;100.00;98454.06;5132937;27;20194;-80
2022/06/09 00:22:46;;;;;;;2.43;1.60;;;;;;;14.81;100.00;98450.00;5134715;27;20225;-80
2022/06/09 00:25:14;;;;;;;5.63;2.00;;;;;;;14.75;100.00;98447.91;5133917;27;20645;-80
2022/06/09 00:27:43;;;;;;;4.30;1.77;;;;;;;14.83;100.00;98447.19;5128594;27;20269;-79
2022/06/09 00:30:13;;;;;;;2.53;1.70;;;;;;;14.75;100.00;98466.56;5134491;27;20198;-80
2022/06/09 00:32:42;;;;;;;6.33;1.83;;;;;;;14.70;100.00;98470.66;5128514;27;20221;-80
2022/06/09 00:35:13;;;;;;;9.13;2.13;;;;;;;14.41;100.00;98468.78;5134492;27;20194;-79
2022/06/09 00:37:42;;;;;;;3.13;1.80;;;;;;;14.54;100.00;98471.22;5107194;28;20210;-79
2022/06/09 00:40:14;;;;;;;6.40;1.73;;;;;;;14.58;100.00;98476.13;5110950;28;20222;-80
2022/06/09 00:42:42;;;;;;;4.93;1.70;;;;;;;14.51;100.00;98475.00;5111785;28;20202;-80
2022/06/09 00:45:25;;;;;;;6.80;2.03;;;;;;;14.51;100.00;98485.66;5106382;28;20202;-80
2022/06/09 00:48:01;;;;;;;6.27;1.90;;;;;;;14.61;100.00;98485.66;5111720;28;20195;-80
2022/06/09 00:50:32;;;;;;;4.33;1.70;;;;;;;14.52;100.00;98483.84;5105825;28;20277;-79
2022/06/09 00:53:08;;;;;;;7.40;1.80;;;;;;;14.63;100.00;98490.84;5103620;28;20228;-80
2022/06/09 00:55:37;;;;;;;8.73;2.07;;;;;;;14.46;100.00;98493.22;5116271;27;20201;-80
2022/06/09 00:58:09;;;;;;;8.13;1.70;;;;;;;14.67;100.00;98489.56;5127112;27;20205;-79
2022/06/09 01:00:46;;;;;;;6.37;2.07;;;;;;;14.31;100.00;98492.75;5134120;27;20270;-79
2022/06/09 01:03:16;;;;;;;4.67;1.80;;;;;;;14.03;100.00;98489.06;5131492;27;20209;-79
2022/06/09 01:05:48;;;;;;;3.23;1.63;;;;;;;14.04;100.00;98498.72;5133932;27;20218;-80
2022/06/09 01:08:17;;;;;;;4.30;2.03;;;;;;;13.97;100.00;98502.06;5134333;27;20205;-80
2022/06/09 01:10:46;;;;;;;7.07;1.90;;;;;;;14.13;100.00;98499.75;5132429;27;20206;-80
2022/06/09 01:13:14;;;;;;;3.20;1.93;;;;;;;13.96;100.00;98501.22;5124613;27;20202;-79
2022/06/09 01:15:52;;;;;;;5.50;2.10;;;;;;;13.99;100.00;98513.41;5133979;27;20229;-80
2022/06/09 01:18:31;;;;;;;7.00;1.93;;;;;;;13.92;100.00;98505.16;5132772;27;20215;-79
2022/06/09 01:21:09;;;;;;;4.23;1.90;;;;;;;13.91;100.00;98515.94;5128008;27;20194;-79
2022/06/09 01:24:02;;;;;;;3.63;1.93;;;;;;;13.92;100.00;98512.28;5128332;27;20209;-79
2022/06/09 01:27:03;;;;;;;4.50;2.20;;;;;;;13.94;100.00;98513.84;5132628;27;20198;-79
2022/06/09 01:29:47;;;;;;;3.73;1.80;;;;;;;14.05;100.00;98526.19;5116275;27;20275;-80
2022/06/09 01:32:24;;;;;;;8.63;2.40;;;;;;;14.04;100.00;98527.19;5130019;28;20225;-80
2022/06/09 01:35:05;;;;;;;6.73;2.27;;;;;;;14.13;100.00;98520.19;5133902;28;20205;-80
2022/06/09 01:37:38;;;;;;;4.10;2.57;;;;;;;14.01;100.00;98522.13;5133553;28;20218;-80
2022/06/09 01:40:12;;;;;;;7.47;2.37;;;;;;;14.09;100.00;98522.31;5132763;28;20293;-80
2022/06/09 01:42:45;;;;;;;9.37;2.37;;;;;;;14.11;100.00;98517.69;5125174;28;20254;-80
2022/06/09 01:45:22;;;;;;;2.73;2.17;;;;;;;14.21;100.00;98523.03;5130939;28;20338;-80
2022/06/09 01:47:55;;;;;;;6.63;2.40;;;;;;;14.30;100.00;98517.72;5130756;28;20209;-80
2022/06/09 01:50:32;;;;;;;6.37;2.20;;;;;;;14.33;100.00;98522.75;5130400;28;20190;-80
2022/06/09 01:53:04;;;;;;;5.00;2.13;;;;;;;14.29;100.00;98524.03;5133597;28;20265;-80
2022/06/09 01:55:37;;;;;;;6.57;2.27;;;;;;;14.33;100.00;98527.25;5130379;28;20197;-80
2022/06/09 01:58:07;;;;;;;6.93;2.53;;;;;;;14.27;100.00;98531.28;5129286;28;20225;-80
2022/06/09 02:00:37;;;;;;;7.77;2.80;;;;;;;14.16;100.00;98530.56;5133366;28;20241;-79
2022/06/09 02:03:13;;;;;;;3.77;2.20;;;;;;;14.18;100.00;98528.59;5129256;28;20202;-80
2022/06/09 02:05:46;;;;;;;5.20;2.40;;;;;;;14.31;100.00;98522.06;5096467;28;20235;-80
2022/06/09 02:08:19;;;;;;;5.53;2.80;;;;;;;14.39;100.00;98520.56;5128844;28;20189;-80
2022/06/09 02:10:53;;;;;;;6.17;2.30;;;;;;;14.37;100.00;98522.47;5128892;28;20193;-80
2022/06/09 02:13:26;;;;;;;8.30;2.57;;;;;;;14.35;100.00;98516.47;5133329;28;20187;-80
2022/06/09 02:15:59;;;;;;;4.50;2.40;;;;;;;14.37;100.00;98510.00;5132875;28;20190;-80
2022/06/09 02:18:33;;;;;;;5.27;2.60;;;;;;;14.42;100.00;98515.78;5133623;28;20205;-80
2022/06/09 02:21:06;;;;;;;4.73;2.20;;;;;;;14.34;100.00;98510.28;5133108;28;20218;-80
2022/06/09 02:23:36;;;;;;;4.13;2.57;;;;;;;14.20;100.00;98503.53;5128848;28;20735;-80
2022/06/09 02:26:05;;;;;;;4.90;2.33;;;;;;;14.39;100.00;98510.72;5095556;28;20194;-80
2022/06/09 02:28:34;;;;;;;5.77;2.73;;;;;;;14.34;100.00;98507.63;5130339;28;20198;-81
2022/06/09 02:31:03;;;;;;;5.87;2.47;;;;;;;14.19;100.00;98512.53;5130206;28;20728;-81
2022/06/09 02:33:33;;;;;;;5.83;2.43;;;;;;;14.27;100.00;98514.47;5131030;27;20690;-81
2022/06/09 02:36:02;;;;;;;5.37;2.67;;;;;;;14.36;100.00;98505.66;5137099;27;20266;-81
2022/06/09 02:38:30;;;;;;;7.03;2.40;;;;;;;14.38;100.00;98516.16;5134346;27;20452;-81
2022/06/09 02:41:01;;;;;;;7.10;3.03;;;;;;;14.30;100.00;98519.56;5135641;27;20218;-81
2022/06/09 02:43:30;;;;;;;7.67;3.00;;;;;;;14.27;100.00;98514.47;5135280;27;20194;-81
2022/06/09 02:45:59;;;;;;;5.63;2.80;;;;;;;14.23;100.00;98521.91;5130292;27;20649;-81
2022/06/09 02:48:27;;;;;;;4.60;2.57;;;;;;;14.25;100.00;98519.94;5127643;27;20198;-80
2022/06/09 02:50:58;;;;;;;5.63;2.80;;;;;;;14.32;100.00;98530.91;5136444;27;20237;-81
2022/06/09 02:53:26;;;;;;;8.10;3.13;;;;;;;14.14;100.00;98528.06;5130858;27;20637;-81
2022/06/09 02:55:54;;;;;;;6.57;2.80;;;;;;;14.32;100.00;98525.56;5135123;27;20197;-81
2022/06/09 02:58:24;;;;;;;7.47;2.70;;;;;;;14.08;100.00;98533.91;5136516;27;20198;-81
2022/06/09 03:00:54;;;;;;;9.83;3.43;;;;;;;14.19;100.00;98547.16;5136548;27;20704;-81
2022/06/09 03:03:22;;;;;;;5.50;3.00;;;;;;;14.21;100.00;98545.19;5130406;27;20191;-81
2022/06/09 03:05:51;;;;;;;7.23;3.07;;;;;;;14.25;100.00;98545.75;5134705;27;20663;-81
2022/06/09 03:08:20;;;;;;;7.07;3.00;;;;;;;14.27;100.00;98551.75;5130830;27;20201;-81
2022/06/09 03:10:48;;;;;;;5.50;3.10;;;;;;;14.25;100.00;98553.72;5135472;27;20194;-81
2022/06/09 03:13:17;;;;;;;5.40;3.00;;;;;;;14.24;100.00;98552.88;5131728;27;20264;-81
2022/06/09 03:15:48;;;;;;;8.47;2.93;;;;;;;14.14;100.00;98554.69;5131615;27;20191;-81
2022/06/09 03:18:17;;;;;;;6.87;2.90;;;;;;;14.24;100.00;98552.03;5135170;27;20277;-81
2022/06/09 03:20:46;;;;;;;6.77;3.10;;;;;;;14.09;100.00;98554.25;5134915;27;20218;-81
2022/06/09 03:23:15;;;;;;;5.57;3.30;;;;;;;14.06;100.00;98556.34;5134503;27;20221;-81
2022/06/09 03:25:45;;;;;;;5.20;3.10;;;;;;;14.03;100.00;98555.63;5133033;27;20201;-78
2022/06/09 03:28:13;;;;;;;6.17;3.47;;;;;;;14.12;100.00;98559.31;5135980;27;20199;-81
2022/06/09 03:30:41;;;;;;;5.87;3.03;;;;;;;14.19;100.00;98565.78;5135742;27;20233;-81
2022/06/09 03:33:10;;;;;;;9.70;3.40;;;;;;;14.01;100.00;98572.72;5126894;27;20259;-81
2022/06/09 03:35:38;;;;;;;7.07;3.37;;;;;;;14.09;100.00;98574.69;5133075;27;20190;-81
2022/06/09 03:38:07;;;;;;;6.83;3.10;;;;;;;14.21;100.00;98582.47;5135960;27;20625;-81
2022/06/09 03:40:35;;;;;;;8.47;3.50;;;;;;;14.17;100.00;98582.84;5134357;27;20206;-81
2022/06/09 03:43:06;;;;;;;6.80;3.03;;;;;;;14.10;100.00;98587.91;5131773;27;20205;-81
2022/06/09 03:45:35;;;;;;;7.63;3.43;;;;;;;14.13;100.00;98584.13;5095428;27;20194;-81
2022/06/09 03:48:05;;;;;;;6.80;3.10;;;;;;;14.06;100.00;98588.28;5134070;27;20387;-82
2022/06/09 03:50:34;;;;;;;6.67;3.50;;;;;;;14.21;100.00;98582.47;5135593;27;20195;-81
2022/06/09 03:53:02;;;;;;;7.73;3.20;;;;;;;14.15;100.00;98577.66;5135802;27;20191;-81
2022/06/09 03:55:32;;;;;;;5.47;3.47;;;;;;;14.07;100.00;98588.16;5133913;27;20193;-81
2022/06/09 03:58:00;;;;;;;10.03;3.30;;;;;;;14.07;100.00;98593.47;5135077;27;20202;-81
2022/06/09 04:00:32;;;;;;;6.57;3.30;;;;;;;13.97;100.00;98588.09;5132649;27;20293;-81
2022/06/09 04:03:00;;;;;;;5.13;3.30;;;;;;;13.82;100.00;98592.13;5134073;27;20190;-81
2022/06/09 04:05:30;;;;;;;7.90;3.83;;;;;;;13.91;100.00;98593.16;5135557;27;20251;-81
2022/06/09 04:08:00;;;;;;;5.93;3.37;;;;;;;13.90;100.00;98575.50;5134295;27;20190;-81
2022/06/09 04:10:32;;;;;;;7.03;3.47;;;;;;;13.90;100.00;98586.13;5128205;27;20194;-81
2022/06/09 04:13:00;;;;;;;5.97;3.60;;;;;;;14.02;100.00;98582.41;5129527;27;20225;-81
2022/06/09 04:15:31;;;;;;;10.03;3.40;;;;;;;13.97;100.00;98581.94;5132147;27;20194;-81
2022/06/09 04:17:59;;;;;;;7.23;2.93;;;;;;;13.97;100.00;98576.63;5135094;27;20213;-79
2022/06/09 04:20:28;;;;;;;7.90;3.83;;;;;;;14.04;100.00;98577.78;5134930;27;20263;-81
2022/06/09 04:22:56;;;;;;;8.80;3.30;;;;;;;14.09;100.00;98580.03;5127510;27;20202;-81
2022/06/09 04:25:25;;;;;;;9.37;3.77;;;;;;;14.14;100.00;98581.31;5126133;27;20194;-81
2022/06/09 04:27:53;;;;;;;5.77;3.17;;;;;;;14.21;100.00;98593.13;5134532;27;20190;-81
2022/06/09 04:30:23;;;;;;;6.50;3.37;;;;;;;14.18;100.00;98582.72;5134193;27;20210;-81
2022/06/09 04:32:55;;;;;;;5.70;3.27;;;;;;;14.24;100.00;98586.69;5134469;27;20225;-80
2022/06/09 04:35:23;;;;;;;8.23;3.47;;;;;;;14.14;100.00;98580.47;5134541;27;20187;-81
2022/06/09 04:38:01;;;;;;;8.03;3.60;;;;;;;13.95;100.00;98592.72;5134413;27;20187;-81
2022/06/09 04:40:33;;;;;;;6.63;3.70;;;;;;;13.77;100.00;98591.66;5133234;27;20732;-81
2022/06/09 04:43:02;;;;;;;8.40;3.90;;;;;;;13.86;100.00;98598.84;5128351;27;20190;-81
2022/06/09 04:45:31;;;;;;;8.17;3.60;;;;;;;13.95;100.00;98608.72;5130334;27;20189;-81
2022/06/09 04:48:02;;;;;;;9.70;3.60;;;;;;;14.06;100.00;98607.78;5132272;27;20231;-81
2022/06/09 04:50:31;;;;;;;9.77;3.70;;;;;;;14.10;100.00;98601.22;5134267;27;20613;-80
2022/06/09 04:53:00;;;;;;;9.80;3.70;;;;;;;14.10;100.00;98603.03;5130558;27;20194;-80
2022/06/09 04:55:29;;;;;;;12.07;4.13;;;;;;;14.11;100.00;98610.06;5131618;27;20191;-80
2022/06/09 04:57:58;;;;;;;9.03;3.50;;;;;;;14.15;100.00;98616.78;5129327;27;20206;-81
2022/06/09 05:00:27;;;;;;;6.23;3.83;;;;;;;14.03;100.00;98611.56;5129196;27;20202;-81
2022/06/09 05:02:56;;;;;;;6.53;3.47;;;;;;;14.18;100.00;98622.66;5134570;27;20198;-81
2022/06/09 05:05:29;;;;;;;8.77;3.30;;;;;;;14.17;100.00;98623.66;5131471;27;20220;-80
2022/06/09 05:07:57;;;;;;;8.23;3.13;;;;;;;14.09;100.00;98623.50;5134101;27;20194;-81
2022/06/09 05:10:27;;;;;;;7.93;3.50;;;;;;;14.23;100.00;98633.78;5125848;27;20213;-81
2022/06/09 05:12:56;;;;;;;9.33;3.70;;;;;;;14.37;100.00;98639.72;5132250;27;20204;-81
2022/06/09 05:15:24;;;;;;;9.87;3.57;;;;;;;14.37;100.00;98639.72;5133931;27;20191;-81
2022/06/09 05:17:53;;;;;;;7.17;3.10;;;;;;;14.34;100.00;98654.16;5133656;27;20221;-81
2022/06/09 05:20:25;;;;;;;9.53;3.00;;;;;;;14.35;100.00;98658.50;5134233;27;20193;-80
2022/06/09 05:22:53;;;;;;;7.33;3.60;;;;;;;14.42;100.00;98664.16;5090937;28;20207;-80
2022/06/09 05:25:23;;;;;;;6.97;3.30;;;;;;;14.59;100.00;98656.38;5088341;28;20244;-80
2022/06/09 05:27:53;;;;;;;6.13;3.40;;;;;;;14.64;100.00;98660.44;5091959;28;20196;-80
2022/06/09 05:30:25;;;;;;;10.07;3.43;;;;;;;14.68;100.00;98662.72;5090770;28;20188;-80
2022/06/09 05:32:54;;;;;;;9.30;3.53;;;;;;;14.55;100.00;98664.78;5084851;28;20192;-80
2022/06/09 05:35:23;;;;;;;11.87;4.00;;;;;;;14.44;100.00;98673.69;5090849;28;20674;-80
2022/06/09 05:46:15;;;;;;;8.73;4.13;;;;;;;14.47;100.00;98675.25;5133643;28;20213;-80
2022/06/09 05:48:44;;;;;;;13.77;3.97;;;;;;;14.55;100.00;98676.28;5133879;27;20262;-81
2022/06/09 05:51:13;;;;;;;10.27;4.50;;;;;;;14.75;100.00;98681.66;5132393;28;20229;-81
2022/06/09 05:53:44;;;;;;;8.53;4.43;;;;;;;14.66;100.00;98685.16;5129188;28;20205;-81
2022/06/09 05:56:12;;;;;;;11.77;4.57;;;;;;;14.77;100.00;98693.91;5132193;28;20198;-81
2022/06/09 05:58:40;;;;;;;12.30;4.03;;;;;;;14.81;100.00;98689.97;5130339;28;20212;-81
2022/06/09 06:01:11;;;;;;;10.77;4.83;;;;;;;14.64;100.00;98687.94;5131213;28;20187;-81
2022/06/09 06:03:40;;;;;;;9.80;4.10;;;;;;;14.70;100.00;98678.59;5133787;28;20241;-80
2022/06/09 06:08:55;;;;;;;8.13;4.60;;;;;;;14.79;100.00;98683.94;5135511;27;20201;-81
2022/06/09 06:11:24;;;;;;;9.77;4.93;;;;;;;14.74;100.00;98687.97;5131433;27;20191;-81
2022/06/09 06:13:54;;;;;;;10.00;4.57;;;;;;;14.89;100.00;98682.13;5136811;27;20195;-81
2022/06/09 06:16:23;;;;;;;9.13;4.90;;;;;;;14.94;100.00;98687.03;5134335;27;20194;-80
2022/06/09 06:19:09;;;;;;;11.53;4.83;;;;;;;15.03;100.00;98696.06;5137116;27;20190;-80
2022/06/09 06:21:39;;;;;;;11.03;4.73;;;;;;;15.02;100.00;98700.53;5134257;27;20222;-81
2022/06/09 06:24:10;;;;;;;9.87;4.67;;;;;;;15.07;100.00;98700.16;5134160;27;20269;-80
2022/06/09 06:26:39;;;;;;;12.90;4.20;;;;;;;15.02;100.00;98702.38;5134386;27;20194;-81
2022/06/09 06:29:13;;;;;;;9.83;4.50;;;;;;;15.02;100.00;98703.22;5136067;27;20202;-81
2022/06/09 06:31:42;;;;;;;8.77;4.10;;;;;;;15.21;100.00;98702.41;5136683;27;20228;-81
2022/06/09 06:34:13;;;;;;;7.50;4.17;;;;;;;15.37;100.00;98709.88;5136560;27;20277;-81
2022/06/09 06:36:41;;;;;;;7.50;3.43;;;;;;;15.35;100.00;98715.34;5133948;27;20281;-81
2022/06/09 06:39:11;;;;;;;9.27;4.23;;;;;;;15.21;100.00;98721.06;5135415;27;20190;-80
2022/06/09 06:41:42;;;;;;;8.93;3.50;;;;;;;15.06;100.00;98723.31;5128351;27;20212;-81
2022/06/09 06:44:11;;;;;;;7.77;3.47;;;;;;;14.94;100.00;98724.38;5131493;27;20266;-80
2022/06/09 06:46:40;;;;;;;6.47;3.37;;;;;;;15.07;100.00;98717.00;5128745;27;20186;-80
2022/06/09 06:49:09;;;;;;;10.13;3.73;;;;;;;15.25;100.00;98717.16;5130905;27;20186;-80
2022/06/09 06:51:38;;;;;;;8.43;3.60;;;;;;;15.52;100.00;98726.28;5131729;27;20206;-81
2022/06/09 06:54:07;;;;;;;11.03;3.47;;;;;;;15.87;100.00;98734.63;5133025;27;20250;-81
2022/06/09 06:56:38;;;;;;;7.10;3.50;;;;;;;15.79;100.00;98731.81;5132915;27;20525;-80
2022/06/09 06:59:07;;;;;;;8.30;3.70;;;;;;;15.97;100.00;98726.59;5132303;27;20202;-80
2022/06/09 07:01:35;;;;;;;8.30;3.70;;;;;;;15.81;100.00;98734.34;5127792;27;20198;-80
2022/06/09 07:04:05;;;;;;;8.17;3.50;;;;;;;15.96;100.00;98735.59;5136424;27;20202;-81
2022/06/09 07:06:35;;;;;;;9.33;3.20;;;;;;;15.87;100.00;98734.63;5134212;27;20187;-81
2022/06/09 07:09:03;;;;;;;10.80;3.43;;;;;;;15.63;100.00;98729.72;5136461;27;20194;-81
2022/06/09 07:11:32;;;;;;;7.43;3.00;;;;;;;15.78;100.00;98737.28;5064428;27;20195;-81
2022/06/09 07:14:04;;;;;;;7.47;3.17;;;;;;;15.86;100.00;98732.09;5127976;27;20194;-81
2022/06/09 07:16:33;;;;;;;5.43;3.03;;;;;;;16.08;100.00;98739.78;5129154;27;20198;-81
2022/06/09 07:19:17;;;;;;;6.67;3.10;;;;;;;16.10;100.00;98739.63;5136130;27;20201;-80
2022/06/09 07:21:45;;;;;;;5.53;2.80;;;;;;;15.87;100.00;98744.47;5106094;28;20187;-80
2022/06/09 07:24:14;;;;;;;7.93;2.83;;;;;;;15.89;100.00;98743.31;5108815;28;20205;-81
2022/06/09 07:26:42;;;;;;;8.30;2.83;;;;;;;16.19;100.00;98744.13;5109942;28;20281;-81
2022/06/09 07:29:16;;;;;;;7.03;3.10;;;;;;;16.31;100.00;98749.19;5107081;28;20203;-81
2022/06/09 07:31:44;;;;;;;5.07;2.83;;;;;;;16.63;100.00;98749.78;5106510;28;20230;-81
2022/06/09 07:34:13;;;;;;;8.60;2.90;;;;;;;16.58;100.00;98751.03;5108102;28;20233;-81
2022/06/09 07:36:42;;;;;;;4.90;2.80;;;;;;;16.39;100.00;98750.25;5107672;28;20198;-81
2022/06/09 07:39:12;;;;;;;7.70;2.87;;;;;;;16.59;100.00;98765.25;5058352;28;20251;-81
2022/06/09 07:41:40;;;;;;;10.57;3.13;;;;;;;16.40;100.00;98754.63;5092805;28;20237;-81
2022/06/09 07:44:10;;;;;;;7.90;3.20;;;;;;;16.51;100.00;98763.34;5092597;28;20220;-81
2022/06/09 07:46:40;;;;;;;4.63;3.07;;;;;;;16.80;100.00;98763.25;5088541;28;20200;-81
2022/06/09 07:49:09;;;;;;;7.13;3.20;;;;;;;16.94;100.00;98753.88;5084695;28;20218;-80
2022/06/09 07:51:39;;;;;;;5.73;2.97;;;;;;;17.12;100.00;98760.13;5092645;28;20234;-81
2022/06/09 07:54:14;;;;;;;8.40;3.13;;;;;;;17.14;100.00;98766.16;5088630;28;20191;-81
2022/06/09 07:56:43;;;;;;;6.33;2.70;;;;;;;16.78;100.00;98767.03;5096289;27;20194;-80
2022/06/09 07:59:11;;;;;;;3.97;2.67;;;;;;;16.71;100.00;98774.00;5133217;27;20201;-81
2022/06/09 08:01:41;;;;;;;4.70;2.73;;;;;;;16.90;100.00;98768.56;5085540;28;20188;-81
2022/06/09 08:04:09;;;;;;;3.43;2.50;;;;;;;17.21;100.00;98768.25;5089614;28;20302;-81
2022/06/09 08:06:38;;;;;;;4.30;2.70;;;;;;;17.35;100.00;98768.56;5092411;28;20782;-80
2022/06/09 08:09:07;;;;;;;5.97;2.50;;;;;;;17.74;100.00;98771.84;5086989;28;20200;-81
2022/06/09 08:11:37;;;;;;;5.80;2.60;;;;;;;17.91;100.00;98772.00;5089381;28;20206;-80
2022/06/09 08:14:07;;;;;;;4.63;2.40;;;;;;;17.81;100.00;98771.25;5088463;28;20197;-80
2022/06/09 08:16:36;;;;;;;3.60;2.27;;;;;;;17.78;100.00;98771.56;5089150;28;20218;-80
2022/06/09 08:19:06;;;;;;;6.47;2.60;;;;;;;17.34;100.00;98776.75;5097324;27;20700;-80
2022/06/09 08:21:40;;;;;;;5.53;2.60;;;;;;;17.14;100.00;98789.41;5134818;27;20467;-80
2022/06/09 08:24:21;;;;;;;6.37;3.03;;;;;;;16.50;100.00;98785.72;5133515;27;20214;-81
2022/06/09 08:26:50;;;;;;;10.70;2.93;;;;;;;16.71;100.00;98800.75;5134846;27;20198;-81
2022/06/09 08:29:24;;;;;;;6.17;2.77;;;;;;;16.52;100.00;98796.25;5131114;27;20228;-81
2022/06/09 08:31:52;;;;;;;6.87;3.00;;;;;;;16.39;100.00;98801.06;5131261;27;20754;-81
2022/06/09 08:34:22;;;;;;;6.03;2.77;;;;;;;16.47;100.00;98809.19;5131683;27;20282;-81
2022/06/09 08:36:51;;;;;;;5.97;2.63;;;;;;;16.41;100.00;98812.47;5133731;27;20282;-81
2022/06/09 08:39:19;;;;;;;6.07;2.77;;;;;;;16.45;100.00;98809.34;5132700;27;20198;-81
2022/06/09 08:41:59;;;;;;;5.07;2.67;;;;;;;16.38;100.00;98810.91;5128641;27;20201;-81
2022/06/09 08:44:42;;;;;;;6.73;2.20;;;;;;;16.53;100.00;98819.34;5133824;27;20703;-81
2022/06/09 08:47:19;;;;;;;7.53;2.53;;;;;;;16.48;100.00;98826.91;5132511;27;20190;-80
2022/06/09 08:50:07;;;;;;;5.00;2.40;;;;;;;16.55;100.00;98820.03;5132012;27;20197;-80
2022/06/09 08:52:43;;;;;;;5.77;2.70;;;;;;;16.29;100.00;98825.97;5132641;27;20200;-81
2022/06/09 08:55:22;;;;;;;4.83;2.37;;;;;;;16.57;100.00;98834.09;5132149;27;20224;-80
2022/06/09 08:57:52;;;;;;;3.97;2.83;;;;;;;16.65;100.00;98828.03;5131380;27;20194;-80
2022/06/09 09:00:25;;;;;;;6.43;3.80;;;;;;;16.61;100.00;98843.53;5134213;27;20202;-80
2022/06/09 09:03:00;;;;;;;9.03;3.63;;;;;;;16.57;100.00;98834.94;5131528;27;20218;-80
2022/06/09 09:05:38;;;;;;;5.67;3.67;;;;;;;16.28;100.00;98839.47;5134383;27;20186;-80
2022/06/09 09:08:09;;;;;;;8.43;3.70;;;;;;;16.43;100.00;98850.59;5127277;27;20257;-80
2022/06/09 09:10:48;;;;;;;5.13;3.37;;;;;;;16.17;100.00;98839.63;5130047;27;20205;-80
2022/06/09 09:13:40;;;;;;;5.00;3.40;;;;;;;16.22;100.00;98840.06;5131280;27;20194;-80
2022/06/09 09:16:21;;;;;;;7.10;3.67;;;;;;;15.99;100.00;98839.47;5134023;27;20206;-79
2022/06/09 09:18:54;;;;;;;5.30;3.50;;;;;;;16.12;100.00;98845.41;5130157;27;20225;-80
2022/06/09 09:21:45;;;;;;;8.47;3.60;;;;;;;16.27;100.00;98848.47;5133736;27;20191;-80
2022/06/09 09:24:24;;;;;;;6.77;4.83;;;;;;;16.40;100.00;98850.84;5131288;27;20273;-80
2022/06/09 09:27:04;;;;;;;6.93;4.50;;;;;;;16.67;100.00;98842.09;5133793;27;20222;-80
2022/06/09 09:29:40;;;;;;;5.83;4.17;;;;;;;16.33;100.00;98841.75;5132111;27;20190;-80
2022/06/09 09:32:14;;;;;;;6.03;3.40;;;;;;;16.72;100.00;98845.22;5128446;28;20229;-80
2022/06/09 09:34:45;;;;;;;7.50;3.70;;;;;;;16.23;100.00;98849.75;5129811;28;20718;-80
2022/06/09 09:37:24;;;;;;;7.57;4.10;;;;;;;16.30;100.00;98859.72;5133559;28;20262;-80
2022/06/09 09:39:56;;;;;;;7.27;4.20;;;;;;;16.52;100.00;98865.78;5129293;28;20201;-80
2022/06/09 09:42:28;;;;;;;8.40;3.60;;;;;;;16.45;100.00;98864.66;5114814;28;20269;-80
2022/06/09 09:45:06;;;;;;;9.80;3.87;;;;;;;16.46;100.00;98866.34;5134785;27;20214;-80
2022/06/09 09:47:44;;;;;;;6.40;2.87;;;;;;;16.48;100.00;98869.69;5137992;27;20189;-80
2022/06/09 09:50:26;;;;;;;6.87;3.70;;;;;;;16.39;100.00;98873.22;5136926;27;20202;-80
2022/06/09 09:53:02;;;;;;;6.50;3.80;;;;;;;16.70;100.00;98866.75;5133574;27;20197;-80
2022/06/09 09:55:34;;;;;;;9.63;4.30;;;;;;;17.20;100.00;98874.50;5136965;27;20202;-80
2022/06/09 09:58:25;;;;;;;8.00;4.63;;;;;;;17.15;100.00;98871.41;5137754;27;20210;-80
2022/06/09 10:00:57;;;;;;;10.70;4.10;;;;;;;17.25;100.00;98863.31;5132149;27;20198;-80
2022/06/09 10:09:56;;;;;;;10.20;7.93;;;;;;;18.78;100.00;98865.91;5136875;27;20281;-80
2022/06/09 10:12:45;;;;;;;10.23;7.70;;;;;;;18.67;100.00;98866.16;5137462;27;20190;-81
2022/06/09 10:15:30;;;;;;;11.80;8.10;;;;;;;18.73;100.00;98862.88;5137461;27;20201;-80
2022/06/09 10:18:19;;;;;;;11.40;7.70;;;;;;;18.68;100.00;98858.97;5137412;27;20194;-80
2022/06/09 10:21:07;;;;;;;11.17;7.60;;;;;;;18.98;100.00;98863.84;5137462;27;20197;-81
2022/06/09 10:23:54;;;;;;;10.10;7.93;;;;;;;19.39;100.00;98858.69;5135682;27;20687;-80
2022/06/09 10:26:29;;;;;;;10.27;7.83;;;;;;;19.48;100.00;98864.94;5135943;27;20190;-80
2022/06/09 10:29:03;;;;;;;10.83;7.80;;;;;;;19.15;100.00;98872.84;5137187;27;20202;-80
2022/06/09 10:31:42;;;;;;;10.37;8.10;;;;;;;18.88;100.00;98887.28;5136602;27;20226;-80
2022/06/09 10:34:28;;;;;;;11.07;7.93;;;;;;;18.64;100.00;98874.50;5136493;27;20192;-80
2022/06/09 10:37:01;;;;;;;11.60;7.80;;;;;;;18.65;100.00;98880.75;5136436;27;20222;-80
2022/06/09 10:39:45;;;;;;;8.40;6.77;;;;;;;19.00;100.00;98877.09;5135009;27;20191;-80
2022/06/09 10:42:25;;;;;;;9.50;6.50;;;;;;;19.45;100.00;98864.25;5093074;28;20200;-80
2022/06/09 10:45:07;;;;;;;10.93;6.87;;;;;;;19.63;100.00;98876.78;5093148;28;20662;-80
2022/06/09 10:56:22;;;;;;;9.03;6.57;;;;;;;20.82;100.00;98870.03;5091895;28;20192;-80
2022/06/09 10:58:57;;;;;;;12.50;6.63;;;;;;;21.18;100.00;98866.09;5086249;28;20199;-81
2022/06/09 11:01:28;;;;;;;10.60;6.50;;;;;;;21.18;100.00;98866.09;5131749;27;20194;-81
2022/06/09 11:03:57;;;;;;;8.57;6.37;;;;;;;21.12;100.00;98873.84;5135996;27;20664;-80
2022/06/09 11:06:49;;;;;;;10.70;6.07;;;;;;;20.62;100.00;98871.41;5135917;27;20281;-80
2022/06/09 11:09:32;;;;;;;9.37;6.40;;;;;;;20.12;100.00;98879.59;5131823;27;20191;-80
2022/06/09 11:12:13;;;;;;;9.53;6.60;;;;;;;19.84;100.00;98879.88;5061958;27;20243;-80
2022/06/09 11:14:58;;;;;;;11.10;7.03;;;;;;;19.57;100.00;98888.16;5135553;27;20201;-80
2022/06/09 11:17:37;;;;;;;9.47;7.00;;;;;;;19.73;100.00;98890.94;5131594;27;20194;-80
2022/06/09 11:20:17;;;;;;;11.40;7.20;;;;;;;20.25;100.00;98880.78;5132632;27;20209;-81
2022/06/09 11:22:59;;;;;;;10.70;6.43;;;;;;;20.51;100.00;98879.81;5134128;27;20202;-81
2022/06/09 11:25:37;;;;;;;9.30;6.47;;;;;;;21.02;100.00;98883.13;5131412;27;20396;-81
2022/06/09 11:28:38;;;;;;;6.93;5.30;;;;;;;21.24;100.00;98879.72;5135797;27;20191;-81
2022/06/09 11:31:23;;;;;;;6.30;4.67;;;;;;;21.48;100.00;98884.22;5131755;27;20221;-81
2022/06/09 11:34:03;;;;;;;8.63;5.10;;;;;;;21.31;100.00;98871.81;5134088;27;20230;-81
2022/06/09 11:36:36;;;;;;;8.30;5.47;;;;;;;21.54;100.00;98875.44;5135799;27;20201;-80
2022/06/09 11:39:23;;;;;;;10.37;5.67;;;;;;;21.37;100.00;98882.72;5134319;27;20197;-80
2022/06/09 11:42:00;;;;;;;7.37;4.90;;;;;;;22.05;100.00;98881.22;5134884;27;20194;-80
2022/06/09 11:44:31;;;;;;;8.47;4.37;;;;;;;22.46;100.00;98881.78;5136086;27;20214;-81
2022/06/09 11:47:04;;;;;;;6.43;4.17;;;;;;;22.40;100.00;98879.84;5133104;27;20660;-81
2022/06/09 11:49:37;;;;;;;6.57;4.77;;;;;;;21.65;100.00;98876.91;5134214;27;20281;-81
2022/06/09 11:52:15;;;;;;;7.53;4.67;;;;;;;22.44;100.00;98877.59;5135497;27;20205;-80
2022/06/09 11:54:58;;;;;;;6.30;4.17;;;;;;;21.86;100.00;98881.69;5129124;27;20273;-81
2022/06/09 11:57:44;;;;;;;7.17;4.57;;;;;;;21.36;100.00;98874.81;5133534;27;20183;-80
2022/06/09 12:00:46;;;;;;;10.50;4.93;;;;;;;21.41;100.00;98880.53;5135165;27;20209;-80
2022/06/09 12:03:42;;;;;;;6.70;4.40;;;;;;;21.31;100.00;98879.88;5124679;27;20190;-80
2022/06/09 12:06:22;;;;;;;7.83;4.10;;;;;;;21.28;100.00;98881.06;5126965;27;20246;-80
2022/06/09 12:09:03;;;;;;;6.77;4.03;;;;;;;21.23;100.00;98887.94;5135155;27;20194;-80
2022/06/09 12:11:54;;;;;;;7.47;4.30;;;;;;;20.89;100.00;98897.13;5132155;27;20277;-80
2022/06/09 12:14:27;;;;;;;8.13;4.00;;;;;;;20.82;100.00;98898.81;5134998;27;20202;-81
2022/06/09 12:17:08;;;;;;;7.63;4.47;;;;;;;20.82;100.00;98896.97;5132760;27;20204;-80